createdAt,value
2018-10-05T00:01:17.749Z,11.30
2018-10-05T00:03:49.458Z,11.30
2018-10-05T00:06:19.116Z,11.30
2018-10-05T00:08:48.275Z,11.30
2018-10-05T00:11:18.134Z,11.30
2018-10-05T00:13:47.844Z,11.30
2018-10-05T00:16:17.709Z,11.30
2018-10-05T00:18:50.412Z,11.30
2018-10-05T00:21:19.952Z,11.30
2018-10-05T00:23:49.627Z,11.20
2018-10-05T00:26:19.400Z,11.20
2018-10-05T00:28:48.888Z,11.20
2018-10-05T00:31:18.233Z,11.20
2018-10-05T00:33:47.461Z,11.20
2018-10-05T00:36:16.649Z,11.20
2018-10-05T00:38:45.595Z,11.20
2018-10-05T00:41:15.627Z,11.10
2018-10-05T00:43:45.472Z,11.10
2018-10-05T00:46:14.826Z,11.10
2018-10-05T00:48:44.503Z,11.10
2018-10-05T00:51:13.673Z,11.00
2018-10-05T00:53:42.922Z,11.00
2018-10-05T00:57:41.695Z,10.90
2018-10-05T01:00:10.762Z,10.90
2018-10-05T01:02:40.193Z,10.90
2018-10-05T01:05:09.362Z,10.80
2018-10-05T01:07:38.589Z,10.80
2018-10-05T01:10:08.534Z,10.80
2018-10-05T01:12:37.661Z,10.80
2018-10-05T01:15:06.818Z,10.70
2018-10-05T01:17:36.188Z,10.70
2018-10-05T01:20:05.452Z,10.70
2018-10-05T01:22:35.637Z,10.70
2018-10-05T01:25:05.691Z,10.70
2018-10-05T01:27:35.016Z,10.70
2018-10-05T01:30:04.154Z,10.60
2018-10-05T01:32:33.534Z,10.60
2018-10-05T01:35:02.740Z,10.60
2018-10-05T01:37:32.321Z,10.60
2018-10-05T01:40:01.534Z,10.60
2018-10-05T01:42:30.788Z,10.60
2018-10-05T01:45:00.240Z,10.50
2018-10-05T01:47:30.169Z,10.50
2018-10-05T01:49:59.327Z,10.50
2018-10-05T01:52:28.327Z,10.50
2018-10-05T01:54:57.425Z,10.50
2018-10-05T01:57:26.722Z,10.50
2018-10-05T01:59:55.698Z,10.50
2018-10-05T02:02:24.797Z,10.50
2018-10-05T02:04:54.019Z,10.50
2018-10-05T02:07:22.993Z,10.50
2018-10-05T02:09:52.072Z,10.50
2018-10-05T02:12:21.425Z,10.50
2018-10-05T02:14:50.435Z,10.40
2018-10-05T02:17:19.582Z,10.40
2018-10-05T02:19:49.349Z,10.40
2018-10-05T02:22:19.138Z,10.40
2018-10-05T02:24:48.781Z,10.40
2018-10-05T02:27:17.869Z,10.40
2018-10-05T02:29:47.178Z,10.40
2018-10-05T02:32:16.383Z,10.40
2018-10-05T02:34:45.829Z,10.40
2018-10-05T02:37:15.113Z,10.40
2018-10-05T02:39:44.303Z,10.30
2018-10-05T02:42:13.659Z,10.30
2018-10-05T02:44:42.690Z,10.30
2018-10-05T02:47:11.870Z,10.30
2018-10-05T02:50:44.224Z,10.30
2018-10-05T02:53:13.800Z,10.30
2018-10-05T02:55:42.828Z,10.30
2018-10-05T02:58:11.964Z,10.30
2018-10-05T03:00:54.183Z,10.20
2018-10-05T03:03:23.451Z,10.20
2018-10-05T03:05:52.609Z,10.20
2018-10-05T03:08:21.576Z,10.20
2018-10-05T03:10:50.614Z,10.20
2018-10-05T03:13:19.637Z,10.10
2018-10-05T03:15:49.203Z,10.20
2018-10-05T03:18:18.674Z,10.10
2018-10-05T03:20:47.860Z,10.10
2018-10-05T03:23:16.847Z,10.10
2018-10-05T03:25:47.294Z,10.10
2018-10-05T03:28:16.550Z,10.10
2018-10-05T03:30:45.598Z,10.00
2018-10-05T03:33:14.686Z,10.00
2018-10-05T03:35:43.720Z,10.00
2018-10-05T03:38:13.310Z,10.00
2018-10-05T03:40:42.395Z,9.90
2018-10-05T03:43:11.318Z,9.90
2018-10-05T03:45:40.275Z,9.90
2018-10-05T03:48:09.727Z,9.90
2018-10-05T03:50:39.133Z,9.90
2018-10-05T03:53:09.237Z,9.90
2018-10-05T03:55:39.070Z,9.90
2018-10-05T03:58:08.338Z,9.90
2018-10-05T04:00:37.435Z,9.90
2018-10-05T04:03:06.999Z,9.80
2018-10-05T04:05:36.164Z,9.80
2018-10-05T04:08:05.448Z,9.80
2018-10-05T04:10:34.696Z,9.80
2018-10-05T04:13:04.029Z,9.80
2018-10-05T04:15:33.229Z,9.90
2018-10-05T04:18:03.343Z,9.90
2018-10-05T04:20:32.985Z,9.80
2018-10-05T04:23:02.151Z,9.80
2018-10-05T04:25:31.126Z,9.80
2018-10-05T04:28:00.377Z,9.90
2018-10-05T04:30:31.323Z,9.80
2018-10-05T04:33:00.530Z,9.80
2018-10-05T04:35:30.330Z,9.80
2018-10-05T04:38:00.354Z,9.80
2018-10-05T04:40:34.119Z,9.80
2018-10-05T04:43:03.815Z,9.80
2018-10-05T04:45:35.814Z,9.70
2018-10-05T04:48:11.207Z,9.70
2018-10-05T04:50:41.503Z,9.70
2018-10-05T04:53:10.964Z,9.70
2018-10-05T04:55:41.439Z,9.70
2018-10-05T04:58:11.888Z,9.60
2018-10-05T05:00:41.258Z,9.60
2018-10-05T05:03:10.237Z,9.60
2018-10-05T05:05:39.567Z,9.60
2018-10-05T05:08:08.527Z,9.60
2018-10-05T05:10:38.312Z,9.60
2018-10-05T05:13:07.677Z,9.50
2018-10-05T05:15:36.973Z,9.50
2018-10-05T05:18:06.198Z,9.50
2018-10-05T05:20:35.178Z,9.50
2018-10-05T05:23:05.041Z,9.50
2018-10-05T05:25:34.899Z,9.50
2018-10-05T05:28:04.008Z,9.50
2018-10-05T05:30:33.720Z,9.50
2018-10-05T05:33:04.250Z,9.50
2018-10-05T05:35:34.035Z,9.50
2018-10-05T05:38:03.081Z,9.50
2018-10-05T05:40:35.660Z,9.50
2018-10-05T05:43:05.353Z,9.40
2018-10-05T05:45:35.182Z,9.40
2018-10-05T05:48:05.908Z,9.40
2018-10-05T05:50:35.215Z,9.40
2018-10-05T05:53:10.489Z,9.40
2018-10-05T05:55:39.892Z,9.40
2018-10-05T05:58:10.048Z,9.30
2018-10-05T06:00:42.462Z,9.30
2018-10-05T06:03:11.499Z,9.30
2018-10-05T06:05:40.561Z,9.30
2018-10-05T06:08:09.805Z,9.30
2018-10-05T06:10:39.076Z,9.30
2018-10-05T06:13:09.094Z,9.30
2018-10-05T06:15:38.107Z,9.30
2018-10-05T06:18:08.127Z,9.30
2018-10-05T06:20:37.524Z,9.30
2018-10-05T06:23:13.954Z,9.30
2018-10-05T06:25:55.083Z,9.40
2018-10-05T06:28:25.403Z,9.40
2018-10-05T06:30:55.410Z,9.50
2018-10-05T06:33:24.810Z,9.40
2018-10-05T06:35:54.362Z,9.50
2018-10-05T06:38:23.720Z,9.60
2018-10-05T06:40:54.451Z,9.60
2018-10-05T06:43:25.811Z,9.60
2018-10-05T06:45:56.093Z,9.70
2018-10-05T06:48:25.340Z,9.80
2018-10-05T06:50:55.497Z,9.90
2018-10-05T06:53:24.929Z,9.90
2018-10-05T06:55:54.717Z,10.00
2018-10-05T06:58:23.742Z,10.10
2018-10-05T07:00:54.840Z,10.20
2018-10-05T07:03:23.871Z,10.20
2018-10-05T07:05:55.388Z,10.20
2018-10-05T07:08:47.526Z,10.30
2018-10-05T07:11:16.829Z,10.40
2018-10-05T07:13:48.019Z,10.40
2018-10-05T07:16:19.841Z,10.50
2018-10-05T07:18:49.248Z,10.60
2018-10-05T07:21:20.082Z,10.70
2018-10-05T07:23:50.058Z,10.80
2018-10-05T07:26:19.318Z,10.80
2018-10-05T07:28:48.664Z,10.90
2018-10-05T07:31:18.991Z,11.00
2018-10-05T07:33:50.448Z,11.00
2018-10-05T07:36:19.813Z,11.10
2018-10-05T07:38:49.523Z,11.10
2018-10-05T07:41:21.452Z,11.20
2018-10-05T07:43:53.860Z,11.30
2018-10-05T07:46:26.616Z,11.40
2018-10-05T07:48:55.758Z,11.50
2018-10-05T07:51:56.079Z,11.60
2018-10-05T07:54:25.931Z,11.70
2018-10-05T07:56:55.317Z,11.80
2018-10-05T07:59:24.813Z,11.90
2018-10-05T08:01:55.208Z,12.00
2018-10-05T08:04:24.696Z,12.00
2018-10-05T08:06:54.654Z,12.10
2018-10-05T08:10:27.698Z,12.30
2018-10-05T08:12:57.682Z,12.40
2018-10-05T08:15:29.280Z,12.60
2018-10-05T08:18:00.441Z,12.70
2018-10-05T08:20:31.479Z,12.80
2018-10-05T08:23:01.343Z,12.90
2018-10-05T08:25:31.081Z,12.90
2018-10-05T08:28:01.838Z,12.90
2018-10-05T08:30:31.228Z,13.00
2018-10-05T08:33:00.381Z,13.10
2018-10-05T08:35:30.202Z,13.20
2018-10-05T08:38:01.078Z,13.30
2018-10-05T08:40:31.180Z,13.50
2018-10-05T08:43:01.930Z,13.60
2018-10-05T08:45:33.324Z,13.70
2018-10-05T08:48:03.811Z,13.80
2018-10-05T08:50:34.869Z,13.90
2018-10-05T08:53:04.767Z,13.90
2018-10-05T08:55:34.479Z,13.90
2018-10-05T08:58:05.688Z,14.00
2018-10-05T09:00:36.695Z,14.10
2018-10-05T09:03:06.212Z,14.20
2018-10-05T09:05:38.268Z,14.30
2018-10-05T09:08:09.075Z,14.40
2018-10-05T09:10:39.769Z,14.60
2018-10-05T09:13:09.675Z,14.80
2018-10-05T09:15:41.920Z,14.90
2018-10-05T09:18:12.847Z,15.10
2018-10-05T09:20:42.238Z,15.20
2018-10-05T09:23:24.200Z,15.30
2018-10-05T09:25:55.811Z,15.50
2018-10-05T09:28:29.382Z,15.60
2018-10-05T09:31:06.582Z,15.80
2018-10-05T09:33:39.873Z,16.10
2018-10-05T09:36:15.937Z,16.80
2018-10-05T09:38:49.382Z,18.30
2018-10-05T09:41:30.718Z,19.40
2018-10-05T09:44:15.915Z,20.00
2018-10-05T09:46:51.453Z,21.10
2018-10-05T09:49:21.462Z,22.30
2018-10-05T09:51:51.225Z,22.90
2018-10-05T09:54:21.143Z,23.50
2018-10-05T09:56:50.884Z,23.30
2018-10-05T09:59:20.845Z,23.00
2018-10-05T10:04:01.099Z,23.10
2018-10-05T10:06:30.528Z,23.70
2018-10-05T10:09:15.093Z,25.00
2018-10-05T10:11:45.246Z,25.50
2018-10-05T10:14:14.755Z,24.70
2018-10-05T10:16:44.823Z,24.30
2018-10-05T10:19:16.849Z,24.20
2018-10-05T10:21:46.581Z,24.30
2018-10-05T10:24:15.774Z,24.60
2018-10-05T10:26:48.379Z,25.30
2018-10-05T10:29:19.437Z,26.40
2018-10-05T10:31:52.400Z,25.90
2018-10-05T10:34:31.634Z,25.50
2018-10-05T10:37:06.791Z,26.10
2018-10-05T10:39:37.377Z,27.30
2018-10-05T10:42:09.680Z,28.00
2018-10-05T10:44:39.682Z,28.00
2018-10-05T10:47:10.148Z,27.30
2018-10-05T10:49:41.807Z,27.90
2018-10-05T10:52:12.495Z,27.40
2018-10-05T10:54:43.863Z,27.80
2018-10-05T10:57:13.852Z,28.50
2018-10-05T10:59:43.585Z,28.70
2018-10-05T11:02:12.892Z,28.40
2018-10-05T11:04:42.656Z,27.50
2018-10-05T11:07:11.833Z,27.00
2018-10-05T11:09:42.908Z,27.30
2018-10-05T11:12:13.233Z,27.60
2018-10-05T11:14:42.707Z,28.00
2018-10-05T11:17:12.990Z,28.30
2018-10-05T11:19:42.583Z,27.90
2018-10-05T11:22:13.335Z,27.90
2018-10-05T11:24:42.889Z,28.30
2018-10-05T11:27:15.327Z,28.70
2018-10-05T11:29:45.171Z,29.50
2018-10-05T11:32:17.339Z,29.70
2018-10-05T11:34:49.113Z,29.50
2018-10-05T11:37:19.181Z,29.40
2018-10-05T11:39:50.301Z,28.50
2018-10-05T11:42:23.101Z,27.90
2018-10-05T11:44:56.586Z,28.10
2018-10-05T11:47:27.825Z,28.20
2018-10-05T11:50:01.990Z,28.70
2018-10-05T11:52:33.756Z,28.80
2018-10-05T11:55:04.710Z,28.90
2018-10-05T11:57:36.795Z,28.20
2018-10-05T12:00:10.232Z,28.30
2018-10-05T12:02:40.420Z,28.60
2018-10-05T12:05:09.990Z,28.60
2018-10-05T12:07:39.581Z,28.30
2018-10-05T12:10:09.267Z,28.50
2018-10-05T12:12:38.774Z,29.50
2018-10-05T12:15:12.178Z,30.20
2018-10-05T12:17:41.793Z,30.40
2018-10-05T12:20:12.753Z,30.00
2018-10-05T12:22:41.996Z,29.70
2018-10-05T12:25:23.015Z,30.20
2018-10-05T12:27:53.642Z,30.10
2018-10-05T12:30:24.013Z,29.90
2018-10-05T12:32:55.109Z,29.70
2018-10-05T12:35:24.720Z,29.50
2018-10-05T12:37:54.294Z,29.70
2018-10-05T12:40:23.853Z,29.90
2018-10-05T12:42:54.752Z,29.60
2018-10-05T12:45:25.386Z,29.80
2018-10-05T12:47:59.817Z,29.90
2018-10-05T12:50:30.052Z,30.30
2018-10-05T12:53:00.177Z,29.50
2018-10-05T12:55:34.190Z,29.60
2018-10-05T12:58:06.875Z,29.80
2018-10-05T13:00:36.759Z,29.30
2018-10-05T13:03:15.808Z,29.60
2018-10-05T13:05:47.702Z,30.00
2018-10-05T13:08:26.024Z,30.50
2018-10-05T13:10:55.802Z,30.40
2018-10-05T13:13:33.335Z,31.00
2018-10-05T13:16:05.063Z,31.50
2018-10-05T13:18:35.724Z,31.20
2018-10-05T13:21:06.063Z,31.00
2018-10-05T13:23:35.562Z,31.80
2018-10-05T13:26:05.463Z,31.70
2018-10-05T13:28:36.132Z,31.80
2018-10-05T13:31:12.568Z,31.30
2018-10-05T13:33:42.796Z,31.60
2018-10-05T13:36:14.847Z,32.40
2018-10-05T13:38:45.077Z,31.80
2018-10-05T13:41:16.888Z,31.30
2018-10-05T13:43:46.192Z,30.70
2018-10-05T13:46:15.789Z,30.70
2018-10-05T13:48:45.862Z,30.10
2018-10-05T13:51:20.029Z,30.50
2018-10-05T13:53:51.186Z,30.00
2018-10-05T13:56:21.851Z,29.50
2018-10-05T13:58:51.944Z,29.30
2018-10-05T14:01:21.642Z,29.00
2018-10-05T14:03:51.646Z,28.40
2018-10-05T14:06:21.246Z,27.80
2018-10-05T14:08:51.956Z,28.00
2018-10-05T14:11:23.188Z,27.00
2018-10-05T14:14:08.693Z,26.30
2018-10-05T14:16:39.637Z,25.20
2018-10-05T14:19:41.109Z,24.60
2018-10-05T14:22:21.299Z,24.10
2018-10-05T14:24:53.333Z,23.80
2018-10-05T14:27:25.189Z,23.60
2018-10-05T14:29:57.428Z,23.50
2018-10-05T14:32:39.160Z,23.30
2018-10-05T14:35:21.847Z,23.10
2018-10-05T14:37:52.248Z,23.00
2018-10-05T14:40:41.434Z,23.00
2018-10-05T14:43:13.797Z,22.80
2018-10-05T14:45:46.425Z,22.70
2018-10-05T14:48:17.712Z,22.70
2018-10-05T14:50:56.111Z,22.70
2018-10-05T14:53:26.780Z,22.50
2018-10-05T14:56:06.582Z,22.50
2018-10-05T14:58:42.337Z,22.50
2018-10-05T15:01:14.327Z,22.40
2018-10-05T15:03:51.535Z,22.40
2018-10-05T15:06:22.058Z,22.40
2018-10-05T15:09:06.484Z,22.40
2018-10-05T15:11:43.263Z,22.30
2018-10-05T15:14:30.875Z,22.40
2018-10-05T15:17:01.208Z,22.40
2018-10-05T15:19:37.187Z,22.50
2018-10-05T15:22:13.058Z,22.50
2018-10-05T15:24:45.272Z,22.50
2018-10-05T15:27:23.463Z,22.50
2018-10-05T15:29:52.927Z,22.40
2018-10-05T15:32:24.396Z,22.40
2018-10-05T15:34:58.340Z,22.30
2018-10-05T15:37:30.171Z,22.20
2018-10-05T15:40:00.541Z,22.20
2018-10-05T15:42:30.752Z,22.20
2018-10-05T15:45:16.597Z,22.20
2018-10-05T15:48:16.852Z,22.10
2018-10-05T15:50:52.020Z,22.10
2018-10-05T15:53:22.398Z,22.10
2018-10-05T15:59:09.137Z,22.10
2018-10-05T16:01:40.222Z,22.20
2018-10-05T16:04:22.270Z,22.20
2018-10-05T16:06:58.968Z,22.20
2018-10-05T16:09:43.380Z,22.20
2018-10-05T16:12:13.235Z,22.30
2018-10-05T16:14:43.241Z,22.30
2018-10-05T16:17:21.622Z,22.30
2018-10-05T16:20:14.783Z,22.30
2018-10-05T16:22:56.418Z,22.20
2018-10-05T16:25:34.798Z,22.20
2018-10-05T16:28:05.979Z,22.10
2018-10-05T16:30:52.461Z,22.10
2018-10-05T16:33:36.447Z,22.00
2018-10-05T16:36:33.112Z,21.90
2018-10-05T16:39:12.441Z,21.90
2018-10-05T16:42:08.326Z,21.90
2018-10-05T16:44:44.198Z,21.90
2018-10-05T16:47:13.567Z,22.00
2018-10-05T16:49:44.381Z,22.00
2018-10-05T16:52:15.690Z,22.00
2018-10-05T16:54:50.540Z,22.00
2018-10-05T16:57:28.517Z,21.90
2018-10-05T17:00:16.259Z,21.80
2018-10-05T17:02:48.498Z,21.80
2018-10-05T17:05:36.150Z,21.80
2018-10-05T17:08:25.953Z,21.70
2018-10-05T17:11:15.456Z,21.60
2018-10-05T17:14:08.567Z,21.60
2018-10-05T17:16:43.229Z,21.50
2018-10-05T17:19:19.455Z,21.40
2018-10-05T17:22:02.619Z,21.30
2018-10-05T17:24:55.257Z,21.10
2018-10-05T17:27:28.247Z,21.00
2018-10-05T17:30:05.858Z,20.90
2018-10-05T17:32:43.277Z,20.90
2018-10-05T17:35:15.616Z,20.90
2018-10-05T17:37:54.127Z,20.80
2018-10-05T17:40:27.340Z,20.80
2018-10-05T17:42:58.771Z,20.80
2018-10-05T17:45:29.085Z,20.70
2018-10-05T17:48:02.159Z,20.70
2018-10-05T17:50:47.251Z,20.70
2018-10-05T17:53:21.399Z,20.70
2018-10-05T17:55:54.545Z,20.60
2018-10-05T18:01:25.485Z,20.40
2018-10-05T18:04:17.849Z,20.40
2018-10-05T18:10:55.851Z,20.10
2018-10-05T18:13:44.301Z,20.00
2018-10-05T18:16:18.103Z,19.90
2018-10-05T18:18:48.185Z,19.90
2018-10-05T18:21:20.821Z,19.90
2018-10-05T18:23:58.981Z,19.80
2018-10-05T18:26:33.621Z,19.70
2018-10-05T18:29:10.828Z,19.70
2018-10-05T18:31:43.506Z,19.70
2018-10-05T18:34:14.927Z,19.80
2018-10-05T18:37:14.321Z,19.80
2018-10-05T18:39:45.794Z,19.70
2018-10-05T18:42:15.359Z,19.60
2018-10-05T18:44:46.684Z,19.60
2018-10-05T18:50:32.286Z,19.60
2018-10-05T18:53:04.351Z,19.70
2018-10-05T18:56:21.877Z,19.50
2018-10-05T18:59:00.439Z,19.40
2018-10-05T19:01:45.056Z,19.20
2018-10-05T19:04:26.376Z,19.20
2018-10-05T19:06:57.023Z,19.10
2018-10-05T19:09:28.830Z,19.00
2018-10-05T19:12:01.301Z,18.90
2018-10-05T19:14:34.766Z,18.80
2018-10-05T19:17:05.786Z,18.70
2018-10-05T19:19:37.931Z,18.60
2018-10-05T19:23:01.881Z,18.60
2018-10-05T19:25:36.425Z,18.60
2018-10-05T19:28:10.375Z,18.50
2018-10-05T19:36:31.670Z,18.50
2018-10-05T19:41:53.268Z,18.50
2018-10-05T19:44:24.508Z,18.50
2018-10-05T19:47:56.562Z,18.50
2018-10-05T19:50:31.468Z,18.40
2018-10-05T19:53:22.885Z,18.40
2018-10-05T19:55:58.107Z,18.30
2018-10-05T19:58:39.096Z,18.20
2018-10-05T20:01:09.331Z,18.10
2018-10-05T20:03:55.180Z,17.90
2018-10-05T20:06:30.294Z,17.90
2018-10-05T20:09:03.809Z,17.80
2018-10-05T20:12:02.531Z,17.80
2018-10-05T20:14:48.449Z,17.80
2018-10-05T20:17:47.098Z,17.80
2018-10-05T20:20:27.711Z,17.70
2018-10-05T20:23:05.683Z,17.70
2018-10-05T20:25:39.504Z,17.70
2018-10-05T20:28:16.546Z,17.60
2018-10-05T20:34:49.556Z,17.60
2018-10-05T20:41:13.536Z,17.50
2018-10-05T20:44:23.675Z,17.50
2018-10-05T20:50:27.826Z,17.30
2018-10-05T20:57:20.874Z,17.10
2018-10-05T21:00:35.092Z,17.00
2018-10-05T21:09:27.017Z,17.00
2018-10-05T21:12:00.054Z,17.00
2018-10-05T21:14:41.236Z,17.00
2018-10-05T21:17:16.621Z,16.90
2018-10-05T21:19:59.035Z,16.90
2018-10-05T21:22:49.886Z,16.90
2018-10-05T21:25:27.162Z,17.00
2018-10-05T21:28:17.081Z,17.00
2018-10-05T21:30:49.239Z,16.90
2018-10-05T21:33:22.168Z,16.90
2018-10-05T21:35:52.318Z,16.80
2018-10-05T21:38:30.404Z,16.90
2018-10-05T21:41:27.821Z,16.80
2018-10-05T21:44:10.155Z,16.80
2018-10-05T21:46:43.315Z,16.90
2018-10-05T21:49:13.679Z,17.00
2018-10-05T21:51:44.178Z,17.00
2018-10-05T21:54:15.784Z,16.90
2018-10-05T21:56:48.612Z,16.90
2018-10-05T21:59:38.227Z,16.70
2018-10-05T22:02:27.141Z,16.70
2018-10-05T22:05:16.358Z,16.60
2018-10-05T22:08:10.770Z,16.50
2018-10-05T22:10:55.627Z,16.50
2018-10-05T22:13:29.341Z,16.50
2018-10-05T22:16:03.848Z,16.40
2018-10-05T22:22:36.321Z,16.50
2018-10-05T22:25:32.195Z,16.30
2018-10-05T22:28:23.247Z,16.30
2018-10-05T22:30:56.139Z,16.20
2018-10-05T22:33:44.229Z,16.00
2018-10-05T22:36:14.149Z,16.00
2018-10-05T22:38:44.177Z,15.80
2018-10-05T22:41:22.905Z,15.80
2018-10-05T22:44:07.610Z,15.70
2018-10-05T22:46:38.405Z,15.60
2018-10-05T22:49:09.452Z,15.50
2018-10-05T22:51:40.075Z,15.50
2018-10-05T22:54:17.301Z,15.40
2018-10-05T22:56:55.310Z,15.30
2018-10-05T22:59:31.195Z,15.20
2018-10-05T23:02:03.024Z,15.20
2018-10-05T23:04:40.479Z,15.10
2018-10-05T23:07:18.214Z,15.10
2018-10-05T23:09:49.364Z,15.10
2018-10-05T23:12:42.804Z,15.10
2018-10-05T23:15:23.905Z,15.00
2018-10-05T23:17:56.539Z,14.90
2018-10-05T23:20:25.799Z,14.90
2018-10-05T23:23:08.354Z,14.80
2018-10-05T23:25:39.329Z,14.80
2018-10-05T23:28:12.231Z,14.80
2018-10-05T23:30:41.882Z,14.70
2018-10-05T23:33:22.421Z,14.60
2018-10-05T23:35:53.422Z,14.60
2018-10-05T23:38:26.128Z,14.60
2018-10-05T23:40:56.227Z,14.60
2018-10-05T23:43:26.089Z,14.50
2018-10-05T23:45:58.257Z,14.50
2018-10-05T23:48:30.084Z,14.40
2018-10-05T23:50:59.905Z,14.40
2018-10-05T23:53:30.255Z,14.40
2018-10-05T23:55:59.808Z,14.40
2018-10-05T23:58:33.068Z,14.40
